sensor_id;sensor_type;location;lat;lon;timestamp;pressure;altitude;pressure_sealevel;temperature;humidity
83664;BME280;73634;47.068;15.426;2024-03-22T00:01:46;97876.34;;;11.06;57.22
83664;BME280;73634;47.068;15.426;2024-03-22T00:07:26;97871.19;;;10.90;57.57
83664;BME280;73634;47.068;15.426;2024-03-22T00:09:52;97872.25;;;10.89;57.08
83664;BME280;73634;47.068;15.426;2024-03-22T00:12:17;97877.44;;;10.89;57.29
83664;BME280;73634;47.068;15.426;2024-03-22T00:14:42;97873.53;;;10.92;57.01
83664;BME280;73634;47.068;15.426;2024-03-22T00:17:08;97872.22;;;10.94;57.01
83664;BME280;73634;47.068;15.426;2024-03-22T00:19:34;97868.56;;;10.95;57.16
83664;BME280;73634;47.068;15.426;2024-03-22T00:22:00;97871.72;;;10.87;57.19
83664;BME280;73634;47.068;15.426;2024-03-22T00:24:25;97872.50;;;10.88;57.21
83664;BME280;73634;47.068;15.426;2024-03-22T00:26:51;97875.91;;;10.83;57.59
83664;BME280;73634;47.068;15.426;2024-03-22T00:31:52;97882.69;;;10.84;57.11
83664;BME280;73634;47.068;15.426;2024-03-22T00:34:18;97881.06;;;10.93;57.02
83664;BME280;73634;47.068;15.426;2024-03-22T00:36:44;97884.44;;;10.99;56.76
83664;BME280;73634;47.068;15.426;2024-03-22T00:39:10;97886.00;;;11.00;56.71
83664;BME280;73634;47.068;15.426;2024-03-22T00:41:35;97880.25;;;11.03;57.16
83664;BME280;73634;47.068;15.426;2024-03-22T00:44:01;97877.91;;;11.01;56.65
83664;BME280;73634;47.068;15.426;2024-03-22T00:46:26;97884.41;;;11.04;56.50
83664;BME280;73634;47.068;15.426;2024-03-22T00:48:51;97880.53;;;11.01;56.72
83664;BME280;73634;47.068;15.426;2024-03-22T00:51:17;97890.16;;;11.01;56.59
83664;BME280;73634;47.068;15.426;2024-03-22T00:57:04;97893.50;;;11.07;56.48
83664;BME280;73634;47.068;15.426;2024-03-22T00:59:29;97890.41;;;11.05;56.57
83664;BME280;73634;47.068;15.426;2024-03-22T01:01:54;97887.25;;;11.13;55.61
83664;BME280;73634;47.068;15.426;2024-03-22T01:04:20;97884.34;;;11.19;55.83
83664;BME280;73634;47.068;15.426;2024-03-22T01:06:45;97893.19;;;11.18;56.09
83664;BME280;73634;47.068;15.426;2024-03-22T01:09:10;97887.50;;;11.11;56.08
83664;BME280;73634;47.068;15.426;2024-03-22T01:11:36;97885.69;;;11.12;56.25
83664;BME280;73634;47.068;15.426;2024-03-22T01:14:02;97884.91;;;11.11;55.73
83664;BME280;73634;47.068;15.426;2024-03-22T01:16:27;97888.25;;;11.17;55.47
83664;BME280;73634;47.068;15.426;2024-03-22T01:18:52;97891.31;;;11.24;55.00
83664;BME280;73634;47.068;15.426;2024-03-22T01:23:30;97888.97;;;11.27;54.85
83664;BME280;73634;47.068;15.426;2024-03-22T01:25:55;97883.72;;;11.32;54.25
83664;BME280;73634;47.068;15.426;2024-03-22T01:28:20;97889.44;;;11.34;54.80
83664;BME280;73634;47.068;15.426;2024-03-22T01:30:46;97885.84;;;11.25;55.39
83664;BME280;73634;47.068;15.426;2024-03-22T01:33:11;97880.59;;;11.30;54.66
83664;BME280;73634;47.068;15.426;2024-03-22T01:35:36;97882.63;;;11.39;54.38
83664;BME280;73634;47.068;15.426;2024-03-22T01:38:02;97875.63;;;11.34;54.80
83664;BME280;73634;47.068;15.426;2024-03-22T01:40:27;97882.63;;;11.39;54.39
83664;BME280;73634;47.068;15.426;2024-03-22T01:42:55;97877.44;;;11.39;54.11
83664;BME280;73634;47.068;15.426;2024-03-22T01:45:21;97882.88;;;11.42;53.95
83664;BME280;73634;47.068;15.426;2024-03-22T01:50:27;97877.16;;;11.40;53.74
83664;BME280;73634;47.068;15.426;2024-03-22T01:52:53;97887.06;;;11.38;53.85
83664;BME280;73634;47.068;15.426;2024-03-22T01:55:18;97881.03;;;11.48;53.09
83664;BME280;73634;47.068;15.426;2024-03-22T01:57:43;97878.13;;;11.54;52.35
83664;BME280;73634;47.068;15.426;2024-03-22T02:00:09;97879.59;;;11.60;51.61
83664;BME280;73634;47.068;15.426;2024-03-22T02:02:35;97872.53;;;11.66;51.40
83664;BME280;73634;47.068;15.426;2024-03-22T02:05:17;97876.66;;;11.72;51.05
83664;BME280;73634;47.068;15.426;2024-03-22T02:07:45;97871.16;;;11.74;50.58
83664;BME280;73634;47.068;15.426;2024-03-22T02:10:10;97867.50;;;11.75;50.54
83664;BME280;73634;47.068;15.426;2024-03-22T02:15:24;97852.13;;;11.78;49.80
83664;BME280;73634;47.068;15.426;2024-03-22T02:17:49;97856.81;;;11.81;49.49
83664;BME280;73634;47.068;15.426;2024-03-22T02:20:15;97851.81;;;11.85;48.74
83664;BME280;73634;47.068;15.426;2024-03-22T02:22:40;97847.38;;;11.85;49.26
83664;BME280;73634;47.068;15.426;2024-03-22T02:25:06;97848.41;;;11.89;48.48
83664;BME280;73634;47.068;15.426;2024-03-22T02:27:33;97846.06;;;11.88;48.44
83664;BME280;73634;47.068;15.426;2024-03-22T02:29:58;97852.88;;;11.84;48.49
83664;BME280;73634;47.068;15.426;2024-03-22T02:32:24;97853.88;;;11.88;48.20
83664;BME280;73634;47.068;15.426;2024-03-22T02:34:49;97854.66;;;11.88;47.74
83664;BME280;73634;47.068;15.426;2024-03-22T02:39:20;97847.81;;;11.97;46.71
83664;BME280;73634;47.068;15.426;2024-03-22T02:41:45;97842.59;;;11.97;46.18
83664;BME280;73634;47.068;15.426;2024-03-22T02:44:11;97854.56;;;11.98;46.68
83664;BME280;73634;47.068;15.426;2024-03-22T02:46:36;97847.03;;;11.97;45.95
83664;BME280;73634;47.068;15.426;2024-03-22T02:49:01;97842.25;;;12.04;45.33
83664;BME280;73634;47.068;15.426;2024-03-22T02:51:27;97856.84;;;12.05;45.68
83664;BME280;73634;47.068;15.426;2024-03-22T02:53:52;97845.34;;;12.06;45.32
83664;BME280;73634;47.068;15.426;2024-03-22T02:56:17;97846.41;;;12.05;45.52
83664;BME280;73634;47.068;15.426;2024-03-22T02:58:43;97850.34;;;12.02;45.11
83664;BME280;73634;47.068;15.426;2024-03-22T03:01:08;97843.28;;;12.03;45.00
83664;BME280;73634;47.068;15.426;2024-03-22T03:05:33;97843.28;;;12.03;45.27
83664;BME280;73634;47.068;15.426;2024-03-22T03:08:00;97843.25;;;12.08;44.63
83664;BME280;73634;47.068;15.426;2024-03-22T03:10:26;97837.53;;;12.06;44.65
83664;BME280;73634;47.068;15.426;2024-03-22T03:12:51;97825.03;;;12.03;44.89
83664;BME280;73634;47.068;15.426;2024-03-22T03:15:17;97828.94;;;12.06;44.48
83664;BME280;73634;47.068;15.426;2024-03-22T03:17:42;97823.97;;;12.04;44.73
83664;BME280;73634;47.068;15.426;2024-03-22T03:20:08;97823.97;;;12.04;44.41
83664;BME280;73634;47.068;15.426;2024-03-22T03:22:35;97823.22;;;12.03;44.14
83664;BME280;73634;47.068;15.426;2024-03-22T03:25:01;97824.25;;;12.02;44.49
83664;BME280;73634;47.068;15.426;2024-03-22T03:30:44;97832.16;;;11.97;44.52
83664;BME280;73634;47.068;15.426;2024-03-22T03:33:10;97827.50;;;11.94;44.37
83664;BME280;73634;47.068;15.426;2024-03-22T03:35:35;97822.66;;;11.83;44.55
83664;BME280;73634;47.068;15.426;2024-03-22T03:38:00;97821.38;;;11.80;44.55
83664;BME280;73634;47.068;15.426;2024-03-22T03:40:26;97823.47;;;11.73;45.02
83664;BME280;73634;47.068;15.426;2024-03-22T03:42:53;97826.09;;;11.73;44.83
83664;BME280;73634;47.068;15.426;2024-03-22T03:45:19;97822.16;;;11.76;44.93
83664;BME280;73634;47.068;15.426;2024-03-22T03:47:44;97818.00;;;11.75;44.85
83664;BME280;73634;47.068;15.426;2024-03-22T03:50:09;97826.09;;;11.73;44.59
83664;BME280;73634;47.068;15.426;2024-03-22T03:55:12;97825.34;;;11.67;44.89
83664;BME280;73634;47.068;15.426;2024-03-22T03:57:38;97829.56;;;11.63;45.23
83664;BME280;73634;47.068;15.426;2024-03-22T04:00:03;97831.72;;;11.56;45.26
83664;BME280;73634;47.068;15.426;2024-03-22T04:02:30;97829.38;;;11.55;45.14
83664;BME280;73634;47.068;15.426;2024-03-22T04:04:55;97827.31;;;11.52;45.42
83664;BME280;73634;47.068;15.426;2024-03-22T04:07:21;97830.19;;;11.50;45.61
83664;BME280;73634;47.068;15.426;2024-03-22T04:09:46;97830.00;;;11.42;45.70
83664;BME280;73634;47.068;15.426;2024-03-22T04:12:12;97832.13;;;11.34;45.63
83664;BME280;73634;47.068;15.426;2024-03-22T04:14:37;97822.53;;;11.30;45.88
83664;BME280;73634;47.068;15.426;2024-03-22T04:19:53;97832.13;;;11.34;46.01
83664;BME280;73634;47.068;15.426;2024-03-22T04:22:18;97835.56;;;11.30;45.86
83664;BME280;73634;47.068;15.426;2024-03-22T04:24:44;97824.38;;;11.24;45.95
83664;BME280;73634;47.068;15.426;2024-03-22T04:27:09;97832.72;;;11.21;45.69
83664;BME280;73634;47.068;15.426;2024-03-22T04:29:34;97825.50;;;11.18;46.59
83664;BME280;73634;47.068;15.426;2024-03-22T04:32:00;97821.38;;;11.12;46.48
83664;BME280;73634;47.068;15.426;2024-03-22T04:34:25;97824.47;;;11.14;46.24
83664;BME280;73634;47.068;15.426;2024-03-22T04:36:51;97822.66;;;11.15;46.04
83664;BME280;73634;47.068;15.426;2024-03-22T04:39:19;97821.88;;;11.14;46.45
83664;BME280;73634;47.068;15.426;2024-03-22T04:41:45;97829.16;;;11.17;45.99
83664;BME280;73634;47.068;15.426;2024-03-22T04:46:19;97831.53;;;11.09;46.30
83664;BME280;73634;47.068;15.426;2024-03-22T04:48:44;97838.09;;;11.01;46.36
83664;BME280;73634;47.068;15.426;2024-03-22T04:51:10;97833.19;;;10.94;46.73
83664;BME280;73634;47.068;15.426;2024-03-22T04:53:35;97838.16;;;10.86;47.03
83664;BME280;73634;47.068;15.426;2024-03-22T04:56:00;97840.25;;;10.84;46.68
83664;BME280;73634;47.068;15.426;2024-03-22T04:58:26;97846.28;;;10.79;47.37
83664;BME280;73634;47.068;15.426;2024-03-22T05:00:56;97843.38;;;10.81;47.09
83664;BME280;73634;47.068;15.426;2024-03-22T05:03:22;97836.91;;;10.78;47.66
83664;BME280;73634;47.068;15.426;2024-03-22T05:05:49;97845.78;;;10.77;47.58
83664;BME280;73634;47.068;15.426;2024-03-22T05:10:52;97845.72;;;10.82;47.13
83664;BME280;73634;47.068;15.426;2024-03-22T05:13:18;97848.06;;;10.84;47.49
83664;BME280;73634;47.068;15.426;2024-03-22T05:15:44;97841.84;;;10.80;47.71
83664;BME280;73634;47.068;15.426;2024-03-22T05:18:10;97840.56;;;10.77;47.90
83664;BME280;73634;47.068;15.426;2024-03-22T05:20:35;97847.28;;;10.83;47.80
83664;BME280;73634;47.068;15.426;2024-03-22T05:23:00;97843.88;;;10.88;47.80
83664;BME280;73634;47.068;15.426;2024-03-22T05:25:25;97843.84;;;10.93;47.75
83664;BME280;73634;47.068;15.426;2024-03-22T05:27:51;97844.09;;;10.96;47.65
83664;BME280;73634;47.068;15.426;2024-03-22T05:30:17;97836.78;;;10.98;47.52
83664;BME280;73634;47.068;15.426;2024-03-22T05:35:15;97844.59;;;11.03;47.48
83664;BME280;73634;47.068;15.426;2024-03-22T05:37:40;97849.22;;;11.12;48.12
83664;BME280;73634;47.068;15.426;2024-03-22T05:40:06;97844.00;;;11.17;47.30
83664;BME280;73634;47.068;15.426;2024-03-22T05:42:31;97849.84;;;11.32;47.06
83664;BME280;73634;47.068;15.426;2024-03-22T05:44:57;97840.63;;;11.50;46.44
83664;BME280;73634;47.068;15.426;2024-03-22T05:47:22;97835.25;;;11.65;46.21
83664;BME280;73634;47.068;15.426;2024-03-22T05:49:48;97840.81;;;11.93;45.74
83664;BME280;73634;47.068;15.426;2024-03-22T05:52:13;97826.97;;;12.40;44.62
83664;BME280;73634;47.068;15.426;2024-03-22T05:54:39;97827.97;;;12.87;43.34
83664;BME280;73634;47.068;15.426;2024-03-22T06:00:05;97828.13;;;13.65;41.26
83664;BME280;73634;47.068;15.426;2024-03-22T06:02:32;97818.91;;;14.14;40.30
83664;BME280;73634;47.068;15.426;2024-03-22T06:04:58;97816.41;;;14.50;39.37
83664;BME280;73634;47.068;15.426;2024-03-22T06:07:23;97818.41;;;14.67;38.97
83664;BME280;73634;47.068;15.426;2024-03-22T06:09:48;97824.91;;;14.70;38.76
83664;BME280;73634;47.068;15.426;2024-03-22T06:12:15;97820.88;;;15.22;38.10
83664;BME280;73634;47.068;15.426;2024-03-22T06:14:41;97823.47;;;15.58;37.05
83664;BME280;73634;47.068;15.426;2024-03-22T06:17:08;97827.31;;;15.83;36.87
83664;BME280;73634;47.068;15.426;2024-03-22T06:19:35;97819.81;;;16.38;35.77
83664;BME280;73634;47.068;15.426;2024-03-22T06:22:00;97814.66;;;16.90;34.53
83664;BME280;73634;47.068;15.426;2024-03-22T06:26:58;97816.84;;;16.79;34.42
83664;BME280;73634;47.068;15.426;2024-03-22T06:29:23;97812.63;;;17.47;33.69
83664;BME280;73634;47.068;15.426;2024-03-22T06:31:48;97806.00;;;17.41;33.58
83664;BME280;73634;47.068;15.426;2024-03-22T06:34:15;97810.56;;;17.87;32.56
83664;BME280;73634;47.068;15.426;2024-03-22T06:36:40;97800.38;;;18.74;31.14
83664;BME280;73634;47.068;15.426;2024-03-22T06:39:06;97799.53;;;19.03;30.60
83664;BME280;73634;47.068;15.426;2024-03-22T06:41:34;97795.56;;;19.63;29.43
83664;BME280;73634;47.068;15.426;2024-03-22T06:43:59;97794.75;;;20.32;28.49
83664;BME280;73634;47.068;15.426;2024-03-22T06:46:24;97802.56;;;19.92;28.79
83664;BME280;73634;47.068;15.426;2024-03-22T06:51:24;97803.69;;;20.52;27.99
83664;BME280;73634;47.068;15.426;2024-03-22T06:53:49;97805.59;;;20.39;28.38
83664;BME280;73634;47.068;15.426;2024-03-22T06:56:14;97805.41;;;20.72;27.98
83664;BME280;73634;47.068;15.426;2024-03-22T06:58:40;97809.72;;;21.05;27.46
83664;BME280;73634;47.068;15.426;2024-03-22T07:01:05;97801.91;;;22.11;26.11
83664;BME280;73634;47.068;15.426;2024-03-22T07:03:31;97803.13;;;23.22;24.48
83664;BME280;73634;47.068;15.426;2024-03-22T07:05:56;97803.72;;;23.97;23.90
83664;BME280;73634;47.068;15.426;2024-03-22T07:08:23;97815.38;;;24.15;23.23
83664;BME280;73634;47.068;15.426;2024-03-22T07:10:49;97811.16;;;24.93;21.77
83664;BME280;73634;47.068;15.426;2024-03-22T07:13:14;97802.75;;;24.08;23.16
83664;BME280;73634;47.068;15.426;2024-03-22T07:18:11;97803.13;;;22.49;25.11
83664;BME280;73634;47.068;15.426;2024-03-22T07:20:37;97804.34;;;23.06;24.54
83664;BME280;73634;47.068;15.426;2024-03-22T07:23:02;97802.84;;;24.15;23.37
83664;BME280;73634;47.068;15.426;2024-03-22T07:25:29;97801.84;;;25.06;22.42
83664;BME280;73634;47.068;15.426;2024-03-22T07:27:57;97794.00;;;25.17;21.98
83664;BME280;73634;47.068;15.426;2024-03-22T07:30:22;97800.78;;;25.48;21.49
83664;BME280;73634;47.068;15.426;2024-03-22T07:32:48;97805.47;;;25.24;21.63
83664;BME280;73634;47.068;15.426;2024-03-22T07:35:13;97815.41;;;24.41;22.53
83664;BME280;73634;47.068;15.426;2024-03-22T07:37:39;97804.22;;;24.85;22.56
83664;BME280;73634;47.068;15.426;2024-03-22T07:43:03;97803.59;;;25.29;21.63
83664;BME280;73634;47.068;15.426;2024-03-22T07:45:32;97798.88;;;25.11;22.02
83664;BME280;73634;47.068;15.426;2024-03-22T07:47:57;97799.47;;;26.74;19.98
83664;BME280;73634;47.068;15.426;2024-03-22T07:50:23;97797.09;;;27.70;18.82
83664;BME280;73634;47.068;15.426;2024-03-22T07:52:48;97791.75;;;28.06;18.24
83664;BME280;73634;47.068;15.426;2024-03-22T07:55:14;97787.19;;;27.81;18.59
83664;BME280;73634;47.068;15.426;2024-03-22T07:57:39;97793.66;;;27.84;18.32
83664;BME280;73634;47.068;15.426;2024-03-22T08:00:05;97787.94;;;28.28;17.58
83664;BME280;73634;47.068;15.426;2024-03-22T08:02:31;97789.00;;;28.63;17.71
83664;BME280;73634;47.068;15.426;2024-03-22T08:06:31;97786.44;;;29.25;16.35
83664;BME280;73634;47.068;15.426;2024-03-22T08:08:56;97785.75;;;26.79;19.23
83664;BME280;73634;47.068;15.426;2024-03-22T08:11:22;97780.59;;;28.53;17.40
83664;BME280;73634;47.068;15.426;2024-03-22T08:13:47;97786.03;;;27.93;17.72
83664;BME280;73634;47.068;15.426;2024-03-22T08:16:13;97776.44;;;25.49;20.16
83664;BME280;73634;47.068;15.426;2024-03-22T08:18:38;97775.16;;;25.36;20.76
83664;BME280;73634;47.068;15.426;2024-03-22T08:21:04;97773.63;;;26.96;18.86
83664;BME280;73634;47.068;15.426;2024-03-22T08:23:29;97775.22;;;27.11;18.55
83664;BME280;73634;47.068;15.426;2024-03-22T08:25:55;97775.22;;;28.61;16.78
83664;BME280;73634;47.068;15.426;2024-03-22T08:30:13;97764.88;;;26.99;18.24
83664;BME280;73634;47.068;15.426;2024-03-22T08:32:39;97776.06;;;25.91;19.56
83664;BME280;73634;47.068;15.426;2024-03-22T08:35:05;97770.06;;;26.05;19.97
83664;BME280;73634;47.068;15.426;2024-03-22T08:37:31;97770.69;;;27.40;18.60
83664;BME280;73634;47.068;15.426;2024-03-22T08:39:56;97769.91;;;29.44;16.48
83664;BME280;73634;47.068;15.426;2024-03-22T08:42:22;97778.59;;;28.82;16.71
83664;BME280;73634;47.068;15.426;2024-03-22T08:44:47;97776.72;;;28.76;16.50
83664;BME280;73634;47.068;15.426;2024-03-22T08:47:13;97768.53;;;30.18;15.40
83664;BME280;73634;47.068;15.426;2024-03-22T08:49:39;97771.41;;;29.49;15.84
83664;BME280;73634;47.068;15.426;2024-03-22T08:52:06;97766.81;;;28.66;16.98
83664;BME280;73634;47.068;15.426;2024-03-22T08:56:15;97755.34;;;29.38;15.82
83664;BME280;73634;47.068;15.426;2024-03-22T08:58:40;97751.75;;;29.63;15.95
83664;BME280;73634;47.068;15.426;2024-03-22T09:01:06;97754.41;;;25.15;19.94
83664;BME280;73634;47.068;15.426;2024-03-22T09:03:31;97750.13;;;27.94;18.16
83664;BME280;73634;47.068;15.426;2024-03-22T09:05:59;97742.88;;;27.84;18.21
83664;BME280;73634;47.068;15.426;2024-03-22T09:08:25;97744.75;;;28.08;17.61
83664;BME280;73634;47.068;15.426;2024-03-22T09:10:51;97737.41;;;29.83;16.20
83664;BME280;73634;47.068;15.426;2024-03-22T09:13:16;97744.41;;;29.70;16.43
83664;BME280;73634;47.068;15.426;2024-03-22T09:15:42;97738.28;;;27.92;17.79
83664;BME280;73634;47.068;15.426;2024-03-22T09:19:41;97739.34;;;23.84;22.10
83664;BME280;73634;47.068;15.426;2024-03-22T09:22:06;97727.16;;;27.22;18.63
83664;BME280;73634;47.068;15.426;2024-03-22T09:24:32;97726.28;;;26.10;19.37
83664;BME280;73634;47.068;15.426;2024-03-22T09:26:57;97722.59;;;29.13;16.90
83664;BME280;73634;47.068;15.426;2024-03-22T09:29:24;97718.47;;;32.00;14.10
83664;BME280;73634;47.068;15.426;2024-03-22T09:31:49;97715.28;;;28.37;16.43
83664;BME280;73634;47.068;15.426;2024-03-22T09:34:16;97723.09;;;26.48;18.47
83664;BME280;73634;47.068;15.426;2024-03-22T09:36:41;97719.66;;;25.42;19.89
83664;BME280;73634;47.068;15.426;2024-03-22T09:39:07;97721.38;;;28.41;16.70
83664;BME280;73634;47.068;15.426;2024-03-22T09:41:37;97713.25;;;30.28;15.09
83664;BME280;73634;47.068;15.426;2024-03-22T09:46:40;97709.06;;;34.47;12.04
83664;BME280;73634;47.068;15.426;2024-03-22T09:49:06;97714.59;;;32.44;13.05
83664;BME280;73634;47.068;15.426;2024-03-22T09:51:33;97707.09;;;30.62;14.71
83664;BME280;73634;47.068;15.426;2024-03-22T09:54:00;97710.63;;;31.16;14.00
83664;BME280;73634;47.068;15.426;2024-03-22T09:56:27;97704.16;;;30.15;15.05
83664;BME280;73634;47.068;15.426;2024-03-22T09:58:55;97701.34;;;31.44;13.69
83664;BME280;73634;47.068;15.426;2024-03-22T10:01:22;97691.13;;;31.08;14.14
83664;BME280;73634;47.068;15.426;2024-03-22T10:03:48;97694.09;;;31.17;13.73
83664;BME280;73634;47.068;15.426;2024-03-22T10:06:15;97687.53;;;29.90;14.91
83664;BME280;73634;47.068;15.426;2024-03-22T10:10:50;97688.59;;;26.98;17.86
83664;BME280;73634;47.068;15.426;2024-03-22T10:13:15;97694.72;;;27.09;18.07
83664;BME280;73634;47.068;15.426;2024-03-22T10:15:41;97685.53;;;30.69;15.02
83664;BME280;73634;47.068;15.426;2024-03-22T10:18:06;97683.16;;;31.98;13.81
83664;BME280;73634;47.068;15.426;2024-03-22T10:20:33;97681.50;;;29.78;15.81
83664;BME280;73634;47.068;15.426;2024-03-22T10:22:59;97679.53;;;28.82;16.23
83664;BME280;73634;47.068;15.426;2024-03-22T10:25:28;97672.59;;;29.47;15.61
83664;BME280;73634;47.068;15.426;2024-03-22T10:27:54;97669.66;;;30.17;15.01
83664;BME280;73634;47.068;15.426;2024-03-22T10:30:21;97663.38;;;28.97;15.92
83664;BME280;73634;47.068;15.426;2024-03-22T10:32:48;97668.91;;;25.72;18.39
83664;BME280;73634;47.068;15.426;2024-03-22T10:37:32;97662.84;;;26.47;18.23
83664;BME280;73634;47.068;15.426;2024-03-22T10:39:58;97658.66;;;28.45;16.00
83664;BME280;73634;47.068;15.426;2024-03-22T10:42:24;97655.63;;;30.67;14.42
83664;BME280;73634;47.068;15.426;2024-03-22T10:44:49;97646.88;;;30.90;13.61
83664;BME280;73634;47.068;15.426;2024-03-22T10:47:17;97649.81;;;29.66;14.91
83664;BME280;73634;47.068;15.426;2024-03-22T10:49:45;97657.66;;;25.96;17.67
83664;BME280;73634;47.068;15.426;2024-03-22T10:52:13;97638.84;;;24.86;19.20
83664;BME280;73634;47.068;15.426;2024-03-22T10:54:40;97634.28;;;24.87;18.47
83664;BME280;73634;47.068;15.426;2024-03-22T10:57:12;97641.09;;;21.80;22.61
83664;BME280;73634;47.068;15.426;2024-03-22T11:02:18;97626.00;;;23.42;20.88
83664;BME280;73634;47.068;15.426;2024-03-22T11:04:53;97616.59;;;21.68;22.98
83664;BME280;73634;47.068;15.426;2024-03-22T11:07:22;97611.34;;;21.52;23.17
83664;BME280;73634;47.068;15.426;2024-03-22T11:09:55;97618.56;;;20.48;24.21
83664;BME280;73634;47.068;15.426;2024-03-22T11:12:21;97607.34;;;21.26;23.72
83664;BME280;73634;47.068;15.426;2024-03-22T11:14:46;97607.63;;;20.22;24.75
83664;BME280;73634;47.068;15.426;2024-03-22T11:17:12;97615.31;;;20.83;23.67
83664;BME280;73634;47.068;15.426;2024-03-22T11:19:38;97607.53;;;22.39;22.09
83664;BME280;73634;47.068;15.426;2024-03-22T11:22:07;97597.16;;;23.67;20.62
83664;BME280;73634;47.068;15.426;2024-03-22T11:27:11;97583.19;;;24.67;19.46
83664;BME280;73634;47.068;15.426;2024-03-22T11:29:39;97585.84;;;22.75;21.49
83664;BME280;73634;47.068;15.426;2024-03-22T11:32:07;97593.47;;;22.57;22.24
83664;BME280;73634;47.068;15.426;2024-03-22T11:34:37;97581.34;;;20.69;24.40
83664;BME280;73634;47.068;15.426;2024-03-22T11:37:03;97582.69;;;19.55;25.90
83664;BME280;73634;47.068;15.426;2024-03-22T11:39:28;97571.63;;;19.89;25.92
83664;BME280;73634;47.068;15.426;2024-03-22T11:41:53;97574.22;;;21.33;23.88
83664;BME280;73634;47.068;15.426;2024-03-22T11:44:19;97567.53;;;21.89;23.29
83664;BME280;73634;47.068;15.426;2024-03-22T11:46:45;97568.56;;;21.50;22.87
83664;BME280;73634;47.068;15.426;2024-03-22T11:51:51;97563.44;;;22.95;21.02
83664;BME280;73634;47.068;15.426;2024-03-22T11:54:19;97549.69;;;22.25;22.26
83664;BME280;73634;47.068;15.426;2024-03-22T11:56:45;97547.50;;;21.38;23.42
83664;BME280;73634;47.068;15.426;2024-03-22T11:59:10;97543.69;;;21.89;22.87
83664;BME280;73634;47.068;15.426;2024-03-22T12:01:36;97540.91;;;22.02;22.83
83664;BME280;73634;47.068;15.426;2024-03-22T12:04:01;97536.53;;;21.55;23.11
83664;BME280;73634;47.068;15.426;2024-03-22T12:06:27;97529.47;;;21.43;23.17
83664;BME280;73634;47.068;15.426;2024-03-22T12:08:52;97530.28;;;21.82;22.71
83664;BME280;73634;47.068;15.426;2024-03-22T12:11:18;97537.47;;;21.82;22.79
83664;BME280;73634;47.068;15.426;2024-03-22T12:16:03;97524.97;;;22.40;22.46
83664;BME280;73634;47.068;15.426;2024-03-22T12:18:28;97519.06;;;21.89;22.72
83664;BME280;73634;47.068;15.426;2024-03-22T12:20:54;97519.78;;;22.47;22.27
83664;BME280;73634;47.068;15.426;2024-03-22T12:23:19;97524.00;;;22.71;21.36
83664;BME280;73634;47.068;15.426;2024-03-22T12:25:45;97520.03;;;22.61;21.77
83664;BME280;73634;47.068;15.426;2024-03-22T12:28:10;97507.50;;;23.04;21.13
83664;BME280;73634;47.068;15.426;2024-03-22T12:30:35;97517.75;;;22.18;22.38
83664;BME280;73634;47.068;15.426;2024-03-22T12:33:01;97502.81;;;24.47;19.92
83664;BME280;73634;47.068;15.426;2024-03-22T12:35:26;97513.47;;;21.75;22.03
83664;BME280;73634;47.068;15.426;2024-03-22T12:37:52;97507.09;;;22.14;22.13
83664;BME280;73634;47.068;15.426;2024-03-22T12:42:12;97486.13;;;24.13;19.51
83664;BME280;73634;47.068;15.426;2024-03-22T12:44:37;97492.41;;;22.85;21.48
83664;BME280;73634;47.068;15.426;2024-03-22T12:47:03;97476.03;;;25.25;18.27
83664;BME280;73634;47.068;15.426;2024-03-22T12:49:28;97472.94;;;27.52;16.23
83664;BME280;73634;47.068;15.426;2024-03-22T12:51:55;97478.25;;;25.09;18.30
83664;BME280;73634;47.068;15.426;2024-03-22T12:54:21;97469.19;;;25.24;18.32
83664;BME280;73634;47.068;15.426;2024-03-22T12:56:47;97462.00;;;26.75;16.80
83664;BME280;73634;47.068;15.426;2024-03-22T12:59:13;97461.03;;;27.71;16.07
83664;BME280;73634;47.068;15.426;2024-03-22T13:01:38;97450.91;;;29.75;13.62
83664;BME280;73634;47.068;15.426;2024-03-22T13:06:22;97449.16;;;31.55;12.50
83664;BME280;73634;47.068;15.426;2024-03-22T13:08:48;97447.66;;;31.34;12.80
83664;BME280;73634;47.068;15.426;2024-03-22T13:11:13;97444.94;;;28.92;14.79
83664;BME280;73634;47.068;15.426;2024-03-22T13:13:39;97436.38;;;28.08;15.85
83664;BME280;73634;47.068;15.426;2024-03-22T13:16:05;97442.56;;;27.00;16.58
83664;BME280;73634;47.068;15.426;2024-03-22T13:18:32;97426.91;;;27.09;16.80
83664;BME280;73634;47.068;15.426;2024-03-22T13:20:57;97435.25;;;25.94;18.30
83664;BME280;73634;47.068;15.426;2024-03-22T13:23:23;97428.75;;;23.42;20.16
83664;BME280;73634;47.068;15.426;2024-03-22T13:25:48;97437.59;;;22.02;22.42
83664;BME280;73634;47.068;15.426;2024-03-22T13:30:07;97434.34;;;21.50;22.44
83664;BME280;73634;47.068;15.426;2024-03-22T13:32:38;97423.53;;;23.49;20.74
83664;BME280;73634;47.068;15.426;2024-03-22T13:35:05;97419.97;;;23.08;21.12
83664;BME280;73634;47.068;15.426;2024-03-22T13:37:31;97415.34;;;24.35;19.38
83664;BME280;73634;47.068;15.426;2024-03-22T13:39:57;97413.25;;;24.18;19.24
83664;BME280;73634;47.068;15.426;2024-03-22T13:42:22;97409.09;;;23.46;20.59
83664;BME280;73634;47.068;15.426;2024-03-22T13:44:48;97399.25;;;24.21;19.58
83664;BME280;73634;47.068;15.426;2024-03-22T13:47:13;97391.31;;;24.72;18.93
83664;BME280;73634;47.068;15.426;2024-03-22T13:49:39;97400.41;;;23.83;19.97
83664;BME280;73634;47.068;15.426;2024-03-22T13:54:40;97398.44;;;22.14;21.84
83664;BME280;73634;47.068;15.426;2024-03-22T13:57:05;97388.63;;;22.64;21.51
83664;BME280;73634;47.068;15.426;2024-03-22T13:59:31;97384.72;;;23.07;20.65
83664;BME280;73634;47.068;15.426;2024-03-22T14:01:57;97387.78;;;22.11;21.70
83664;BME280;73634;47.068;15.426;2024-03-22T14:04:23;97380.19;;;22.32;22.12
83664;BME280;73634;47.068;15.426;2024-03-22T14:06:49;97380.88;;;23.05;21.08